Flight Track Log - Related Links

Times and Time Zones

All times are in EDT time to prevent confusion due to time zone crossing. See the SWA1533 flight status page for this flight to view local times or setup timezone preferences in your user account.

Time Position Orientation Groundspeed Altitude Reporting Facility
EDT Latitude Longitude Course Direction KTS MPH feet Rate Location/Type
Sat 12:46:01 PM 33.9500 -118.5000 North 222 255 2,400  Level Southern California TRACON
Sat 12:47:02 PM 33.9333 -118.5833 256° West 257 296 4,600 2,529 Climbing Southern California TRACON
Sat 12:48:02 PM 33.9667 -118.6667 296° West 279 321 7,500 2,200 Climbing Southern California TRACON
Sat 12:49:02 PM 34.0333 -118.7167 328° Northwest 293 337 9,000 1,184 Climbing Southern California TRACON
Sat 12:49:18 PM 34.0469 -118.7053 35° Northeast 294 338 9,000  Level Los Angeles Center
Sat 12:50:20 PM 34.1203 -118.6622 26° Northeast 286 329 9,000 581 Level Los Angeles Center
Sat 12:51:00 PM 34.2474 -118.6000 North  Level FlightAware Approximate
Sat 12:51:22 PM 34.2006 -118.6742 353° North 289 333 10,200  Level Los Angeles Center
Sat 12:52:24 PM 34.2839 -118.6878 352° North 300 345 13,300 1,839 Climbing Los Angeles Center
Sat 12:53:26 PM 34.3650 -118.7011 352° North 295 339 14,000 387 Climbing Los Angeles Center
Sat 12:54:28 PM 34.4483 -118.7131 353° North 297 342 14,100 1,548 Climbing Los Angeles Center
Sat 12:55:30 PM 34.5461 -118.7303 352° North 296 341 17,200 1,984 Climbing Los Angeles Center
Sat 12:56:32 PM 34.6303 -118.7742 337° Northwest 336 387 18,200 1,258 Climbing Los Angeles Center
Sat 12:57:34 PM 34.7239 -118.8222 337° Northwest 361 415 19,800 1,887 Climbing Los Angeles Center
Sat 12:58:36 PM 34.8208 -118.8767 335° Northwest 384 442 22,100 2,032 Climbing Los Angeles Center
Sat 12:59:38 PM 34.9122 -118.9683 321° Northwest 386 444 24,000 1,632 Climbing Los Angeles Center
Sat 01:00:41 PM 34.9997 -119.0536 321° Northwest 402 463 25,500 1,381 Climbing Los Angeles Center
Sat 01:01:44 PM 35.0897 -119.1408 322° Northwest 413 475 26,900 1,306 Climbing Los Angeles Center
Sat 01:02:45 PM 35.1814 -119.2297 322° Northwest 422 486 28,200 1,366 Climbing Los Angeles Center
Sat 01:03:47 PM 35.2717 -119.3192 321° Northwest 419 482 29,700 1,452 Climbing Los Angeles Center
Sat 01:04:49 PM 35.3819 -119.4278 321° Northwest 423 487 31,200 1,403 Climbing Los Angeles Center
Sat 01:05:51 PM 35.4725 -119.5175 321° Northwest 422 486 32,600 1,258 Climbing Los Angeles Center
Sat 01:06:53 PM 35.5619 -119.6067 321° Northwest 419 482 33,800 677 Climbing Los Angeles Center
Sat 01:07:55 PM 35.6517 -119.6964 321° Northwest 418 481 34,000 97 Climbing Los Angeles Center
Sat 01:08:57 PM 35.7411 -119.7861 321° Northwest 418 481 34,000  Level Los Angeles Center
Sat 01:09:59 PM 35.8464 -119.8925 321° Northwest 412 474 34,000  Level Los Angeles Center
Sat 01:11:01 PM 35.9347 -119.9825 320° Northwest 413 475 34,000 -144 Level Los Angeles Center
Sat 01:12:04 PM 36.0247 -120.0733 321° Northwest 418 481 33,700 -624 Descending Los Angeles Center
Sat 01:13:06 PM 36.1153 -120.1650 321° Northwest 421 484 32,700 -1,031 Descending Los Angeles Center
Sat 01:14:12 PM 36.2217 -120.2697 322° Northwest 418 481 31,500 -1,039 Descending Oakland Center
Sat 01:15:13 PM 36.3094 -120.3606 320° Northwest 414 476 30,500 -984 Descending Oakland Center
Sat 01:16:14 PM 36.3961 -120.4494 320° Northwest 406 467 29,500 -984 Descending Oakland Center
Sat 01:17:15 PM 36.4822 -120.5347 321° Northwest 397 457 28,500 -976 Descending Oakland Center
Sat 01:18:17 PM 36.5653 -120.6256 319° Northwest 398 458 27,500 -976 Descending Oakland Center
Sat 01:19:18 PM 36.6500 -120.7106 321° Northwest 392 451 26,500 -738 Descending Oakland Center
Sat 01:20:19 PM 36.7306 -120.7983 319° Northwest 385 443 26,000 -1,180 Descending Oakland Center
Sat 01:21:20 PM 36.8214 -120.8933 320° Northwest 374 430 24,100 -2,146 Descending Oakland Center
Sat 01:22:22 PM 36.8964 -120.9828 316° Northwest 372 428 21,600 -2,439 Descending Oakland Center
Sat 01:23:23 PM 36.9725 -121.0703 317° Northwest 369 425 19,100 -2,115 Descending Oakland Center
Sat 01:24:24 PM 37.0411 -121.1486 318° Northwest 353 406 17,300 -2,000 Descending Oakland Center
Sat 01:25:26 PM 37.1139 -121.2356 316° Northwest 345 397 15,000 -2,146 Descending Oakland Center
Sat 01:26:27 PM 37.1831 -121.3139 318° Northwest 336 387 12,900 -1,820 Descending Oakland Center
Sat 01:27:28 PM 37.2486 -121.3911 317° Northwest 324 373 11,300 -1,426 Descending Oakland Center
Sat 01:28:29 PM 37.3175 -121.4706 317° Northwest 278 320 10,000 -1,122 Descending Oakland Center
Sat 01:29:31 PM 37.3633 -121.5256 316° Northwest 248 285 9,000 -1,011 Descending Oakland Center
Sat 01:29:58 PM 37.4000 -121.5667 318° Northwest 244 281 8,500 -1,034 Descending Northern Cal TRACON
Sat 01:30:58 PM 37.4500 -121.6167 322° Northwest 251 289 7,500 -750 Descending Northern Cal TRACON
Sat 01:31:58 PM 37.4833 -121.6833 302° West 239 275 7,000 -250 Descending Northern Cal TRACON
Sat 01:32:58 PM 37.5333 -121.7333 322° Northwest 220 253 7,000 -300 Level Northern Cal TRACON
Sat 01:33:58 PM 37.5500 -121.8000 288° West 205 236 6,400 -842 Descending Northern Cal TRACON
Sat 01:34:52 PM 37.5500 -121.8667 270° West 200 230 5,400 -947 Descending Northern Cal TRACON
Sat 01:35:52 PM 37.5500 -121.9333 270° West 198 228 4,600 -650 Descending Northern Cal TRACON
Sat 01:36:52 PM 37.5500 -122.0000 270° West 198 228 4,100 -600 Descending Northern Cal TRACON
Sat 01:37:52 PM 37.5833 -122.0500 310° West 192 221 3,400 -800 Descending Northern Cal TRACON
Sat 01:38:52 PM 37.6167 -122.1000 310° West 171 197 2,500 -911 Descending Northern Cal TRACON
Sat 01:39:44 PM 37.6444 -122.1297 320° Northwest 179 206 1,700 -850 Descending Oakland Center
Sat 01:40:45 PM 37.6719 -122.1706 310° West 166 191 900 -780 Descending Oakland Center
Sat 01:41:47 PM 37.6961 -122.2061 311° West 150 173 100 -774 Descending Oakland Center
Sat 01:43:00 PM 37.7167 -122.2167 270° West  Level FlightAware Approximate
Sat 01:50:00 PM 37.7213 -122.2207 270° West  Level Estimated
Sat 01:51:00 PM 37.7167 -122.2167 270° West  Level FlightAware Approximate

Login

Don't have an account? Register now (free) for customized features, flight alerts, and more!